createdAt,value
2018-07-23T00:00:21.424Z,15.33
2018-07-23T00:02:50.919Z,14.00
2018-07-23T00:05:20.466Z,14.77
2018-07-23T00:07:50.066Z,14.90
2018-07-23T00:10:19.339Z,16.57
2018-07-23T00:12:48.865Z,15.30
2018-07-23T00:15:18.261Z,14.77
2018-07-23T00:17:48.230Z,16.90
2018-07-23T00:20:17.799Z,15.73
2018-07-23T00:22:46.984Z,15.50
2018-07-23T00:25:16.811Z,14.37
2018-07-23T00:27:46.254Z,16.30
2018-07-23T00:30:16.049Z,17.20
2018-07-23T00:32:45.535Z,17.03
2018-07-23T00:35:15.310Z,15.33
2018-07-23T00:37:44.746Z,16.10
2018-07-23T00:40:13.911Z,15.80
2018-07-23T00:42:43.927Z,16.10
2018-07-23T00:45:13.173Z,18.20
2018-07-23T00:47:42.640Z,17.10
2018-07-23T00:50:11.794Z,18.20
2018-07-23T00:52:41.635Z,16.80
2018-07-23T00:55:11.427Z,16.67
2018-07-23T00:57:41.355Z,17.93
2018-07-23T01:00:10.752Z,18.10
2018-07-23T01:02:39.598Z,16.40
2018-07-23T01:05:09.415Z,18.20
2018-07-23T01:07:38.957Z,16.80
2018-07-23T01:10:08.434Z,18.57
2018-07-23T01:12:37.844Z,18.27
2018-07-23T01:15:07.088Z,19.30
2018-07-23T01:17:35.925Z,17.90
2018-07-23T01:20:05.540Z,18.03
2018-07-23T01:22:35.033Z,17.37
2018-07-23T01:25:04.092Z,19.50
2018-07-23T01:27:33.616Z,18.17
2018-07-23T01:30:03.181Z,17.90
2018-07-23T01:32:33.093Z,18.00
2018-07-23T01:35:02.898Z,17.20
2018-07-23T01:37:32.715Z,17.90
2018-07-23T01:40:02.517Z,19.87
2018-07-23T01:42:32.312Z,18.57
2018-07-23T01:45:01.580Z,17.70
2018-07-23T01:47:31.060Z,19.67
2018-07-23T01:50:00.535Z,18.90
2018-07-23T01:52:30.366Z,19.70
2018-07-23T01:54:59.907Z,18.87
2018-07-23T01:57:29.691Z,18.40
2018-07-23T01:59:59.150Z,17.67
2018-07-23T02:02:28.970Z,17.90
2018-07-23T02:04:58.194Z,19.37
2018-07-23T02:07:27.723Z,18.17
2018-07-23T02:09:56.849Z,18.23
2018-07-23T02:12:26.372Z,17.90
2018-07-23T02:14:56.268Z,16.40
2018-07-23T02:17:25.866Z,18.60
2018-07-23T02:19:55.165Z,15.90
2018-07-23T02:22:24.445Z,15.53
2018-07-23T02:24:53.797Z,15.33
2018-07-23T02:27:23.640Z,15.73
2018-07-23T02:29:52.798Z,15.70
2018-07-23T02:32:22.367Z,15.10
2018-07-23T02:34:52.133Z,13.80
2018-07-23T02:37:21.670Z,17.60
2018-07-23T02:39:51.207Z,17.27
2018-07-23T02:42:21.022Z,17.80
2018-07-23T02:44:50.508Z,17.10
2018-07-23T02:47:20.039Z,18.93
2018-07-23T02:49:49.342Z,19.03
2018-07-23T02:52:18.434Z,17.40
2018-07-23T02:54:47.962Z,19.07
2018-07-23T02:57:17.260Z,16.70
2018-07-23T02:59:46.811Z,17.17
2018-07-23T03:02:16.143Z,18.67
2018-07-23T03:04:46.102Z,18.80
2018-07-23T03:07:15.590Z,18.67
2018-07-23T03:09:44.524Z,18.90
2018-07-23T03:12:13.343Z,18.47
2018-07-23T03:14:43.108Z,17.20
2018-07-23T03:17:12.667Z,17.77
2018-07-23T03:19:42.187Z,17.70
2018-07-23T03:22:11.401Z,17.33
2018-07-23T03:24:40.387Z,17.53
2018-07-23T03:27:10.144Z,17.70
2018-07-23T03:29:40.027Z,16.90
2018-07-23T03:32:09.468Z,16.53
2018-07-23T03:34:39.233Z,16.00
2018-07-23T03:37:09.180Z,17.30
2018-07-23T03:39:38.390Z,16.20
2018-07-23T03:42:07.562Z,14.93
2018-07-23T03:44:37.667Z,15.70
2018-07-23T03:47:07.145Z,14.97
2018-07-23T03:49:36.675Z,17.13
2018-07-23T03:52:05.997Z,17.70
2018-07-23T03:54:35.087Z,17.23
2018-07-23T03:57:04.226Z,16.33
2018-07-23T03:59:33.741Z,15.00
2018-07-23T04:02:03.512Z,16.33
2018-07-23T04:04:33.343Z,15.93
2018-07-23T04:07:03.142Z,16.00
2018-07-23T04:09:32.361Z,15.63
2018-07-23T04:12:01.479Z,14.43
2018-07-23T04:14:31.057Z,15.33
2018-07-23T04:17:00.902Z,14.33
2018-07-23T04:19:30.499Z,14.97
2018-07-23T04:22:00.018Z,13.93
2018-07-23T04:24:29.901Z,13.90
2018-07-23T04:26:59.710Z,13.50
2018-07-23T04:29:29.221Z,13.67
2018-07-23T04:31:58.656Z,13.53
2018-07-23T04:34:27.997Z,13.90
2018-07-23T04:36:57.461Z,12.40
2018-07-23T04:39:26.738Z,14.00
2018-07-23T04:41:56.577Z,12.43
2018-07-23T04:44:26.935Z,13.13
2018-07-23T04:46:56.394Z,12.97
2018-07-23T04:49:25.862Z,12.97
2018-07-23T04:51:55.789Z,12.20
2018-07-23T04:54:25.681Z,13.10
2018-07-23T04:56:55.192Z,12.67
2018-07-23T04:59:24.900Z,12.10
2018-07-23T05:01:54.454Z,11.60
2018-07-23T05:04:24.243Z,12.20
2018-07-23T05:06:53.794Z,11.63
2018-07-23T05:09:23.622Z,11.50
2018-07-23T05:11:53.231Z,13.60
2018-07-23T05:14:22.457Z,11.73
2018-07-23T05:16:51.876Z,10.53
2018-07-23T05:19:21.299Z,11.00
2018-07-23T05:21:51.187Z,11.40
2018-07-23T05:24:21.119Z,12.23
2018-07-23T05:26:50.530Z,9.93
2018-07-23T05:29:20.338Z,10.37
2018-07-23T05:31:49.951Z,10.70
2018-07-23T05:34:19.993Z,10.20
2018-07-23T05:36:49.793Z,10.33
2018-07-23T05:39:19.072Z,9.83
2018-07-23T05:41:48.547Z,10.07
2018-07-23T05:44:18.329Z,10.40
2018-07-23T05:46:47.790Z,10.13
2018-07-23T05:49:17.626Z,10.60
2018-07-23T05:51:47.089Z,10.70
2018-07-23T05:54:16.245Z,20.37
2018-07-23T05:56:45.735Z,13.43
2018-07-23T05:59:15.483Z,13.10
2018-07-23T06:01:44.759Z,9.57
2018-07-23T06:04:14.705Z,12.60
2018-07-23T06:06:44.367Z,9.27
2018-07-23T06:09:13.774Z,8.37
2018-07-23T06:11:43.386Z,9.90
2018-07-23T06:14:13.315Z,8.70
2018-07-23T06:16:42.836Z,9.23
2018-07-23T06:19:12.662Z,8.77
2018-07-23T06:21:42.197Z,8.20
2018-07-23T06:24:11.680Z,8.50
2018-07-23T06:26:40.579Z,12.63
2018-07-23T06:29:10.075Z,8.60
2018-07-23T06:31:39.563Z,9.27
2018-07-23T06:34:08.657Z,8.60
2018-07-23T06:36:38.137Z,8.20
2018-07-23T06:39:09.275Z,8.03
2018-07-23T06:41:39.412Z,6.50
2018-07-23T06:44:08.931Z,10.87
2018-07-23T06:46:38.703Z,9.40
2018-07-23T06:49:08.362Z,16.17
2018-07-23T06:51:37.802Z,25.43
2018-07-23T06:54:07.421Z,8.40
2018-07-23T06:56:37.099Z,11.63
2018-07-23T06:59:06.527Z,6.10
2018-07-23T07:01:36.000Z,8.37
2018-07-23T07:04:05.161Z,7.90
2018-07-23T07:06:34.865Z,7.10
2018-07-23T07:09:06.925Z,11.40
2018-07-23T07:11:36.414Z,10.07
2018-07-23T07:14:06.563Z,20.90
2018-07-23T07:16:36.010Z,9.30
2018-07-23T07:19:05.586Z,7.30
2018-07-23T07:21:35.119Z,10.33
2018-07-23T07:24:04.935Z,18.83
2018-07-23T07:26:34.522Z,10.73
2018-07-23T07:29:03.812Z,5.53
2018-07-23T07:31:33.650Z,5.50
2018-07-23T07:34:03.579Z,11.23
2018-07-23T07:36:32.777Z,5.40
2018-07-23T07:39:02.636Z,5.23
2018-07-23T07:41:31.962Z,4.90
2018-07-23T07:44:01.809Z,7.70
2018-07-23T07:46:31.370Z,5.00
2018-07-23T07:49:01.024Z,5.90
2018-07-23T07:51:30.514Z,4.93
2018-07-23T07:54:00.017Z,4.57
2018-07-23T07:56:30.213Z,6.60
2018-07-23T07:58:59.370Z,5.70
2018-07-23T08:01:28.847Z,5.43
2018-07-23T08:03:58.290Z,5.30
2018-07-23T08:06:27.858Z,4.30
2018-07-23T08:08:57.669Z,6.40
2018-07-23T08:11:27.098Z,5.70
2018-07-23T08:13:56.967Z,3.80
2018-07-23T08:16:26.185Z,4.03
2018-07-23T08:18:55.282Z,4.23
2018-07-23T08:21:24.904Z,3.73
2018-07-23T08:23:54.413Z,4.07
2018-07-23T08:26:23.529Z,4.17
2018-07-23T08:28:52.766Z,4.63
2018-07-23T08:31:22.454Z,3.60
2018-07-23T08:33:52.230Z,6.90
2018-07-23T08:36:21.777Z,3.90
2018-07-23T08:38:51.563Z,3.80
2018-07-23T08:41:21.319Z,5.30
2018-07-23T08:43:51.218Z,3.60
2018-07-23T08:46:20.718Z,3.07
2018-07-23T08:48:50.223Z,3.30
2018-07-23T08:51:19.751Z,3.27
2018-07-23T08:53:49.754Z,3.13
2018-07-23T08:56:19.235Z,3.30
2018-07-23T08:58:48.706Z,3.57
2018-07-23T09:01:18.572Z,2.87
2018-07-23T09:03:48.120Z,4.27
2018-07-23T09:06:17.586Z,4.73
2018-07-23T09:08:47.607Z,3.07
2018-07-23T09:11:16.925Z,4.07
2018-07-23T09:13:46.701Z,2.17
2018-07-23T09:16:16.522Z,2.67
2018-07-23T09:18:46.327Z,2.60
2018-07-23T09:21:15.433Z,2.50
2018-07-23T09:23:45.348Z,2.70
2018-07-23T09:26:14.499Z,3.07
2018-07-23T09:28:44.400Z,2.30
2018-07-23T09:31:14.221Z,3.83
2018-07-23T09:33:43.759Z,4.17
2018-07-23T09:36:13.530Z,3.60
2018-07-23T09:38:42.481Z,5.00
2018-07-23T09:41:12.211Z,4.13
2018-07-23T09:43:41.178Z,4.90
2018-07-23T09:46:11.058Z,3.07
2018-07-23T09:48:40.505Z,3.30
2018-07-23T09:51:10.320Z,3.33
2018-07-23T09:53:39.817Z,6.77
2018-07-23T09:56:09.710Z,3.60
2018-07-23T09:58:39.145Z,3.10
2018-07-23T10:01:11.255Z,5.70
2018-07-23T10:03:42.062Z,3.73
2018-07-23T10:06:11.683Z,3.93
2018-07-23T10:08:41.530Z,5.20
2018-07-23T10:11:10.681Z,3.10
2018-07-23T10:13:40.503Z,8.13
2018-07-23T10:16:10.293Z,9.67
2018-07-23T10:18:39.766Z,3.13
2018-07-23T10:21:08.865Z,4.60
2018-07-23T10:23:38.170Z,4.40
2018-07-23T10:26:07.325Z,4.20
2018-07-23T10:28:37.131Z,6.00
2018-07-23T10:31:06.566Z,10.80
2018-07-23T10:33:36.102Z,5.77
2018-07-23T10:36:05.554Z,4.60
2018-07-23T10:38:35.101Z,7.13
2018-07-23T10:41:04.613Z,6.47
2018-07-23T10:43:34.380Z,36.87
2018-07-23T10:46:03.759Z,3.50
2018-07-23T10:48:33.689Z,7.73
2018-07-23T10:51:03.190Z,6.70
2018-07-23T10:53:32.528Z,5.47
2018-07-23T10:56:01.589Z,6.53
2018-07-23T10:58:31.803Z,3.73
2018-07-23T11:01:01.550Z,3.73
2018-07-23T11:03:31.480Z,3.10
2018-07-23T11:06:00.934Z,6.60
2018-07-23T11:08:30.666Z,5.63
2018-07-23T11:11:00.510Z,4.00
2018-07-23T11:13:29.958Z,2.97
2018-07-23T11:16:00.093Z,11.67
2018-07-23T11:18:29.215Z,7.37
2018-07-23T11:20:59.104Z,3.20
2018-07-23T11:23:28.962Z,2.60
2018-07-23T11:25:58.980Z,3.20
2018-07-23T11:28:28.785Z,4.30
2018-07-23T11:30:58.332Z,5.30
2018-07-23T11:33:28.172Z,3.40
2018-07-23T11:35:57.716Z,3.10
2018-07-23T11:38:27.557Z,3.90
2018-07-23T11:40:56.767Z,3.73
2018-07-23T11:43:26.222Z,3.43
2018-07-23T11:45:55.755Z,2.83
2018-07-23T11:48:25.607Z,4.03
2018-07-23T11:50:54.861Z,2.93
2018-07-23T11:53:24.424Z,3.30
2018-07-23T11:55:54.851Z,2.87
2018-07-23T11:58:24.715Z,2.63
2018-07-23T12:00:54.186Z,3.00
2018-07-23T12:03:24.030Z,3.23
2018-07-23T12:05:53.477Z,3.80
2018-07-23T12:08:23.408Z,3.50
2018-07-23T12:10:52.550Z,4.10
2018-07-23T12:13:22.406Z,3.10
2018-07-23T12:15:51.897Z,3.87
2018-07-23T12:18:21.409Z,3.47
2018-07-23T12:20:51.190Z,3.53
2018-07-23T12:23:20.980Z,4.10
2018-07-23T12:25:50.351Z,3.40
2018-07-23T12:28:19.829Z,4.30
2018-07-23T12:30:49.334Z,5.57
2018-07-23T12:33:19.128Z,3.90
2018-07-23T12:35:48.647Z,4.00
2018-07-23T12:38:18.064Z,3.70
2018-07-23T12:40:47.853Z,3.30
2018-07-23T12:43:17.423Z,3.43
2018-07-23T12:45:47.168Z,3.17
2018-07-23T12:48:17.007Z,3.90
2018-07-23T12:50:46.185Z,4.00
2018-07-23T12:53:15.672Z,3.87
2018-07-23T12:55:45.122Z,3.50
2018-07-23T12:58:14.798Z,3.60
2018-07-23T13:00:44.541Z,3.53
2018-07-23T13:03:14.346Z,3.13
2018-07-23T13:05:44.092Z,4.53
2018-07-23T13:08:13.615Z,3.90
2018-07-23T13:10:42.928Z,3.53
2018-07-23T13:13:12.482Z,3.70
2018-07-23T13:15:41.668Z,3.57
2018-07-23T13:18:10.632Z,4.37
2018-07-23T13:20:39.532Z,4.20
2018-07-23T13:23:08.577Z,3.50
2018-07-23T13:25:37.770Z,3.93
2018-07-23T13:28:07.784Z,4.00
2018-07-23T13:30:36.926Z,3.57
2018-07-23T13:33:05.837Z,3.50
2018-07-23T13:35:35.250Z,3.93
2018-07-23T13:38:04.209Z,4.10
2018-07-23T13:40:33.453Z,3.63
2018-07-23T13:43:02.587Z,3.33
2018-07-23T13:45:32.129Z,3.37
2018-07-23T13:48:01.557Z,3.30
2018-07-23T13:50:30.882Z,6.00
2018-07-23T13:53:00.067Z,3.33
2018-07-23T13:55:29.276Z,3.30
2018-07-23T13:57:58.406Z,3.37
2018-07-23T14:00:28.179Z,4.87
2018-07-23T14:02:57.749Z,3.90
2018-07-23T14:05:27.202Z,9.40
2018-07-23T14:07:56.956Z,4.60
2018-07-23T14:10:26.532Z,5.33
2018-07-23T14:12:56.341Z,6.40
2018-07-23T14:15:25.567Z,5.00
2018-07-23T14:17:55.027Z,3.93
2018-07-23T14:20:24.871Z,4.53
2018-07-23T14:22:54.699Z,5.90
2018-07-23T14:25:24.250Z,6.90
2018-07-23T14:27:54.025Z,4.77
2018-07-23T14:30:23.391Z,4.77
2018-07-23T14:32:52.230Z,6.30
2018-07-23T14:35:21.478Z,6.33
2018-07-23T14:37:50.636Z,8.77
2018-07-23T14:40:20.100Z,7.17
2018-07-23T14:42:49.574Z,7.03
2018-07-23T14:45:19.414Z,6.60
2018-07-23T14:47:49.020Z,6.80
2018-07-23T14:50:18.417Z,5.87
2018-07-23T14:52:47.881Z,7.03
2018-07-23T14:55:17.144Z,6.10
2018-07-23T14:57:46.864Z,6.13
2018-07-23T15:00:16.566Z,5.70
2018-07-23T15:02:46.403Z,5.33
2018-07-23T15:05:16.327Z,4.97
2018-07-23T15:07:46.198Z,4.00
2018-07-23T15:10:15.884Z,3.93
2018-07-23T15:12:45.475Z,4.00
2018-07-23T15:15:15.307Z,4.87
2018-07-23T15:17:45.383Z,4.20
2018-07-23T15:20:14.945Z,4.37
2018-07-23T15:22:44.900Z,3.70
2018-07-23T15:25:14.791Z,3.90
2018-07-23T15:27:44.321Z,5.00
2018-07-23T15:30:14.186Z,3.23
2018-07-23T15:32:44.130Z,3.40
2018-07-23T15:35:14.001Z,4.30
2018-07-23T15:37:43.806Z,3.90
2018-07-23T15:40:13.819Z,3.60
2018-07-23T15:42:43.699Z,3.10
2018-07-23T15:45:13.387Z,3.60
2018-07-23T15:47:43.255Z,3.77
2018-07-23T15:50:12.843Z,10.77
2018-07-23T15:52:42.388Z,4.10
2018-07-23T15:55:11.872Z,4.30
2018-07-23T15:57:41.387Z,3.77
2018-07-23T16:00:11.484Z,3.80
2018-07-23T16:02:40.966Z,4.43
2018-07-23T16:05:10.809Z,4.23
2018-07-23T16:07:40.639Z,3.90
2018-07-23T16:10:10.499Z,5.10
2018-07-23T16:12:40.298Z,5.97
2018-07-23T16:15:10.153Z,3.70
2018-07-23T16:17:39.648Z,3.70
2018-07-23T16:20:09.081Z,4.70
2018-07-23T16:22:38.668Z,4.20
2018-07-23T16:25:08.647Z,4.53
2018-07-23T16:27:38.166Z,6.40
2018-07-23T16:30:08.522Z,3.90
2018-07-23T16:32:37.931Z,4.13
2018-07-23T16:35:09.434Z,9.60
2018-07-23T16:37:38.630Z,4.77
2018-07-23T16:40:08.408Z,3.77
2018-07-23T16:42:37.738Z,4.80
2018-07-23T16:45:07.228Z,6.50
2018-07-23T16:47:37.038Z,5.27
2018-07-23T16:50:06.483Z,5.33
2018-07-23T16:52:36.145Z,4.30
2018-07-23T16:55:05.511Z,7.90
2018-07-23T16:57:35.018Z,6.20
2018-07-23T17:00:05.396Z,6.20
2018-07-23T17:02:35.281Z,6.63
2018-07-23T17:05:05.941Z,4.33
2018-07-23T17:07:34.956Z,5.40
2018-07-23T17:10:04.123Z,4.30
2018-07-23T17:12:33.835Z,4.23
2018-07-23T17:15:03.304Z,5.13
2018-07-23T17:17:32.478Z,4.40
2018-07-23T17:20:01.724Z,3.90
2018-07-23T17:22:31.376Z,6.27
2018-07-23T17:25:00.990Z,4.30
2018-07-23T17:27:30.475Z,5.70
2018-07-23T17:30:00.078Z,4.80
2018-07-23T17:32:29.706Z,4.50
2018-07-23T17:34:59.562Z,5.07
2018-07-23T17:37:29.059Z,5.10
2018-07-23T17:39:58.905Z,9.23
2018-07-23T17:42:28.539Z,4.67
2018-07-23T17:44:58.408Z,5.40
2018-07-23T17:47:29.151Z,5.70
2018-07-23T17:49:58.657Z,4.20
2018-07-23T17:52:27.982Z,5.57
2018-07-23T17:54:57.397Z,7.23
2018-07-23T17:57:26.229Z,4.67
2018-07-23T17:59:55.959Z,52.30
2018-07-23T18:02:25.560Z,5.00
2018-07-23T18:04:55.071Z,4.20
2018-07-23T18:07:24.865Z,4.00
2018-07-23T18:09:54.730Z,5.00
2018-07-23T18:12:24.205Z,4.57
2018-07-23T18:14:53.653Z,5.77
2018-07-23T18:17:23.634Z,3.80
2018-07-23T18:19:53.296Z,4.33
2018-07-23T18:22:22.751Z,4.23
2018-07-23T18:24:52.745Z,5.03
2018-07-23T18:27:22.553Z,4.80
2018-07-23T18:29:52.370Z,4.40
2018-07-23T18:32:21.891Z,4.60
2018-07-23T18:34:51.710Z,4.03
2018-07-23T18:37:21.636Z,3.80
2018-07-23T18:39:50.908Z,4.40
2018-07-23T18:42:20.558Z,4.50
2018-07-23T18:44:50.410Z,4.77
2018-07-23T18:47:20.215Z,3.80
2018-07-23T18:49:54.755Z,4.50
2018-07-23T18:52:25.087Z,4.17
2018-07-23T18:54:56.356Z,3.87
2018-07-23T18:57:25.577Z,4.13
2018-07-23T18:59:54.696Z,4.47
2018-07-23T19:02:24.339Z,7.37
2018-07-23T19:04:54.144Z,6.80
2018-07-23T19:07:23.661Z,10.10
2018-07-23T19:09:52.950Z,8.67
2018-07-23T19:12:22.151Z,5.80
2018-07-23T19:14:51.682Z,5.70
2018-07-23T19:17:21.347Z,14.63
2018-07-23T19:19:50.883Z,7.30
2018-07-23T19:22:20.746Z,5.40
2018-07-23T19:24:50.224Z,4.77
2018-07-23T19:27:19.738Z,7.43
2018-07-23T19:29:49.759Z,9.13
2018-07-23T19:32:19.353Z,4.40
2018-07-23T19:34:49.199Z,4.90
2018-07-23T19:37:19.087Z,10.80
2018-07-23T19:39:48.932Z,4.80
2018-07-23T19:42:18.942Z,5.03
2018-07-23T19:44:48.977Z,9.70
2018-07-23T19:47:18.829Z,6.60
2018-07-23T19:49:48.713Z,5.90
2018-07-23T19:52:18.236Z,5.03
2018-07-23T19:54:48.071Z,9.50
2018-07-23T19:57:17.728Z,4.30
2018-07-23T19:59:47.527Z,6.73
2018-07-23T20:02:17.051Z,6.13
2018-07-23T20:04:46.200Z,6.50
2018-07-23T20:07:16.057Z,7.60
2018-07-23T20:09:45.860Z,5.90
2018-07-23T20:12:15.810Z,6.20
2018-07-23T20:14:45.423Z,6.83
2018-07-23T20:17:14.966Z,11.37
2018-07-23T20:19:44.449Z,9.23
2018-07-23T20:22:14.007Z,7.73
2018-07-23T20:24:43.749Z,9.67
2018-07-23T20:27:13.337Z,10.90
2018-07-23T20:29:42.519Z,7.37
2018-07-23T20:32:12.161Z,7.37
2018-07-23T20:34:42.208Z,7.00
2018-07-23T20:37:12.177Z,6.87
2018-07-23T20:39:41.999Z,6.77
2018-07-23T20:42:11.806Z,10.63
2018-07-23T20:44:42.925Z,8.70
2018-07-23T20:47:12.726Z,6.90
2018-07-23T20:49:42.956Z,7.60
2018-07-23T20:52:12.755Z,7.20
2018-07-23T20:54:42.520Z,8.13
2018-07-23T20:57:12.318Z,8.03
2018-07-23T20:59:41.881Z,16.27
2018-07-23T21:02:11.120Z,18.33
2018-07-23T21:04:40.586Z,14.50
2018-07-23T21:07:10.353Z,6.17
2018-07-23T21:09:39.652Z,5.50
2018-07-23T21:12:08.797Z,6.00
2018-07-23T21:14:38.536Z,4.93
2018-07-23T21:17:08.361Z,4.90
2018-07-23T21:19:37.595Z,5.20
2018-07-23T21:22:07.070Z,4.67
2018-07-23T21:24:36.485Z,6.63
2018-07-23T21:27:06.333Z,6.90
2018-07-23T21:29:36.085Z,8.10
2018-07-23T21:32:05.235Z,8.97
2018-07-23T21:34:35.063Z,6.50
2018-07-23T21:37:04.193Z,9.77
2018-07-23T21:39:34.005Z,5.57
2018-07-23T21:42:03.437Z,5.10
2018-07-23T21:44:32.909Z,5.57
2018-07-23T21:47:02.414Z,5.30
2018-07-23T21:49:31.660Z,6.27
2018-07-23T21:52:01.327Z,4.73
2018-07-23T21:54:30.939Z,5.17
2018-07-23T21:57:00.626Z,4.93
2018-07-23T21:59:29.816Z,5.57
2018-07-23T22:01:59.321Z,5.20
2018-07-23T22:04:28.573Z,5.77
2018-07-23T22:06:58.356Z,5.70
2018-07-23T22:09:27.249Z,5.30
2018-07-23T22:11:56.821Z,5.90
2018-07-23T22:14:26.620Z,5.33
2018-07-23T22:16:56.082Z,5.10
2018-07-23T22:19:25.225Z,5.63
2018-07-23T22:21:54.793Z,4.70
2018-07-23T22:24:24.244Z,5.73
2018-07-23T22:26:54.090Z,4.57
2018-07-23T22:29:23.865Z,7.67
2018-07-23T22:31:53.338Z,5.00
2018-07-23T22:34:23.175Z,4.97
2018-07-23T22:36:52.729Z,5.33
2018-07-23T22:39:22.488Z,5.70
2018-07-23T22:41:52.252Z,5.40
2018-07-23T22:44:21.451Z,5.30
2018-07-23T22:46:50.973Z,5.33
2018-07-23T22:49:20.126Z,6.53
2018-07-23T22:51:50.137Z,5.63
2018-07-23T22:54:19.979Z,6.30
2018-07-23T22:56:49.833Z,6.20
2018-07-23T22:59:19.602Z,6.23
2018-07-23T23:01:48.805Z,5.67
2018-07-23T23:04:18.786Z,5.03
2018-07-23T23:06:48.068Z,5.70
2018-07-23T23:09:17.558Z,5.50
2018-07-23T23:11:46.729Z,5.00
2018-07-23T23:14:16.156Z,6.33
2018-07-23T23:16:45.608Z,5.70
2018-07-23T23:19:15.600Z,6.47
2018-07-23T23:21:45.444Z,5.83
2018-07-23T23:24:14.942Z,5.60
2018-07-23T23:26:44.411Z,5.80
2018-07-23T23:29:13.891Z,5.43
2018-07-23T23:31:43.396Z,5.90
2018-07-23T23:34:13.074Z,5.83
2018-07-23T23:36:42.555Z,6.37
2018-07-23T23:39:12.923Z,5.83
2018-07-23T23:41:42.505Z,6.27
2018-07-23T23:44:12.362Z,6.00
2018-07-23T23:46:42.260Z,6.07
2018-07-23T23:49:11.739Z,6.40
2018-07-23T23:51:41.527Z,6.47
2018-07-23T23:54:11.018Z,6.07
2018-07-23T23:56:40.897Z,6.40
2018-07-23T23:59:10.511Z,6.30
